sensor_id;sensor_type;location;lat;lon;timestamp;P1;durP1;ratioP1;P2;durP2;ratioP2
76417;SDS011;65250;47.602;19.002;2024-03-17T00:01:38;1.60;;;1.00;;
76417;SDS011;65250;47.602;19.002;2024-03-17T00:04:06;3.17;;;1.10;;
76417;SDS011;65250;47.602;19.002;2024-03-17T00:06:32;1.60;;;0.98;;
76417;SDS011;65250;47.602;19.002;2024-03-17T00:08:58;1.08;;;0.70;;
76417;SDS011;65250;47.602;19.002;2024-03-17T00:11:26;2.15;;;1.27;;
76417;SDS011;65250;47.602;19.002;2024-03-17T00:13:52;1.10;;;0.70;;
76417;SDS011;65250;47.602;19.002;2024-03-17T00:16:18;3.65;;;1.10;;
76417;SDS011;65250;47.602;19.002;2024-03-17T00:18:45;1.42;;;0.95;;
76417;SDS011;65250;47.602;19.002;2024-03-17T00:21:13;2.22;;;1.20;;
76417;SDS011;65250;47.602;19.002;2024-03-17T00:23:39;1.50;;;0.80;;
76417;SDS011;65250;47.602;19.002;2024-03-17T00:26:05;1.65;;;0.82;;
76417;SDS011;65250;47.602;19.002;2024-03-17T00:28:31;2.53;;;0.85;;
76417;SDS011;65250;47.602;19.002;2024-03-17T00:30:57;2.05;;;0.80;;
76417;SDS011;65250;47.602;19.002;2024-03-17T00:33:23;1.20;;;0.75;;
76417;SDS011;65250;47.602;19.002;2024-03-17T00:35:50;1.50;;;0.70;;
76417;SDS011;65250;47.602;19.002;2024-03-17T00:38:16;2.35;;;0.80;;
76417;SDS011;65250;47.602;19.002;2024-03-17T00:40:42;2.17;;;0.73;;
76417;SDS011;65250;47.602;19.002;2024-03-17T00:43:10;1.35;;;0.80;;
76417;SDS011;65250;47.602;19.002;2024-03-17T00:45:39;0.77;;;0.50;;
76417;SDS011;65250;47.602;19.002;2024-03-17T00:48:06;0.90;;;0.60;;
76417;SDS011;65250;47.602;19.002;2024-03-17T00:50:32;2.03;;;0.82;;
76417;SDS011;65250;47.602;19.002;2024-03-17T00:52:58;2.10;;;0.43;;
76417;SDS011;65250;47.602;19.002;2024-03-17T00:55:24;0.82;;;0.70;;
76417;SDS011;65250;47.602;19.002;2024-03-17T00:57:51;1.50;;;0.60;;
76417;SDS011;65250;47.602;19.002;2024-03-17T01:00:17;1.33;;;0.60;;
76417;SDS011;65250;47.602;19.002;2024-03-17T01:02:43;0.90;;;0.60;;
76417;SDS011;65250;47.602;19.002;2024-03-17T01:05:09;2.80;;;0.70;;
76417;SDS011;65250;47.602;19.002;2024-03-17T01:07:36;1.55;;;0.80;;
76417;SDS011;65250;47.602;19.002;2024-03-17T01:10:02;2.53;;;0.82;;
76417;SDS011;65250;47.602;19.002;2024-03-17T01:12:29;2.33;;;1.10;;
76417;SDS011;65250;47.602;19.002;2024-03-17T01:14:55;1.52;;;0.80;;
76417;SDS011;65250;47.602;19.002;2024-03-17T01:17:21;1.40;;;0.68;;
76417;SDS011;65250;47.602;19.002;2024-03-17T01:19:47;1.13;;;0.93;;
76417;SDS011;65250;47.602;19.002;2024-03-17T01:22:13;2.92;;;0.70;;
76417;SDS011;65250;47.602;19.002;2024-03-17T01:24:39;1.08;;;0.82;;
76417;SDS011;65250;47.602;19.002;2024-03-17T01:27:11;1.63;;;1.00;;
76417;SDS011;65250;47.602;19.002;2024-03-17T01:29:40;2.83;;;0.90;;
76417;SDS011;65250;47.602;19.002;2024-03-17T01:32:06;3.03;;;0.90;;
76417;SDS011;65250;47.602;19.002;2024-03-17T01:34:32;2.20;;;1.23;;
76417;SDS011;65250;47.602;19.002;2024-03-17T01:36:58;2.13;;;1.20;;
76417;SDS011;65250;47.602;19.002;2024-03-17T01:39:24;1.92;;;1.20;;
76417;SDS011;65250;47.602;19.002;2024-03-17T01:41:50;1.27;;;0.73;;
76417;SDS011;65250;47.602;19.002;2024-03-17T01:44:22;1.55;;;1.25;;
76417;SDS011;65250;47.602;19.002;2024-03-17T01:46:52;2.03;;;1.20;;
76417;SDS011;65250;47.602;19.002;2024-03-17T01:49:20;2.90;;;1.40;;
76417;SDS011;65250;47.602;19.002;2024-03-17T01:51:47;3.05;;;1.10;;
76417;SDS011;65250;47.602;19.002;2024-03-17T01:54:14;2.08;;;1.10;;
76417;SDS011;65250;47.602;19.002;2024-03-17T01:56:41;2.00;;;1.38;;
76417;SDS011;65250;47.602;19.002;2024-03-17T01:59:07;1.77;;;1.13;;
76417;SDS011;65250;47.602;19.002;2024-03-17T02:01:38;1.50;;;0.90;;
76417;SDS011;65250;47.602;19.002;2024-03-17T02:04:04;2.75;;;1.33;;
76417;SDS011;65250;47.602;19.002;2024-03-17T02:06:31;3.33;;;1.40;;
76417;SDS011;65250;47.602;19.002;2024-03-17T02:08:57;1.88;;;1.15;;
76417;SDS011;65250;47.602;19.002;2024-03-17T02:11:25;1.70;;;1.35;;
76417;SDS011;65250;47.602;19.002;2024-03-17T02:13:52;2.85;;;1.33;;
76417;SDS011;65250;47.602;19.002;2024-03-17T02:16:19;2.40;;;1.50;;
76417;SDS011;65250;47.602;19.002;2024-03-17T02:18:45;3.92;;;1.40;;
76417;SDS011;65250;47.602;19.002;2024-03-17T02:21:12;1.90;;;1.40;;
76417;SDS011;65250;47.602;19.002;2024-03-17T02:23:39;2.85;;;1.67;;
76417;SDS011;65250;47.602;19.002;2024-03-17T02:26:05;2.80;;;1.43;;
76417;SDS011;65250;47.602;19.002;2024-03-17T02:28:37;2.40;;;1.23;;
76417;SDS011;65250;47.602;19.002;2024-03-17T02:31:04;2.83;;;1.85;;
76417;SDS011;65250;47.602;19.002;2024-03-17T02:33:32;2.65;;;1.65;;
76417;SDS011;65250;47.602;19.002;2024-03-17T02:35:58;3.17;;;1.47;;
76417;SDS011;65250;47.602;19.002;2024-03-17T02:38:25;1.95;;;1.45;;
76417;SDS011;65250;47.602;19.002;2024-03-17T02:41:10;3.95;;;1.92;;
76417;SDS011;65250;47.602;19.002;2024-03-17T02:43:36;2.17;;;1.50;;
76417;SDS011;65250;47.602;19.002;2024-03-17T02:46:02;2.78;;;1.80;;
76417;SDS011;65250;47.602;19.002;2024-03-17T02:48:31;2.73;;;1.60;;
76417;SDS011;65250;47.602;19.002;2024-03-17T02:50:57;3.88;;;1.83;;
76417;SDS011;65250;47.602;19.002;2024-03-17T02:53:23;2.65;;;1.60;;
76417;SDS011;65250;47.602;19.002;2024-03-17T02:55:50;2.53;;;1.75;;
76417;SDS011;65250;47.602;19.002;2024-03-17T02:58:16;2.22;;;1.55;;
76417;SDS011;65250;47.602;19.002;2024-03-17T03:00:41;2.43;;;1.60;;
76417;SDS011;65250;47.602;19.002;2024-03-17T03:03:07;2.42;;;1.45;;
76417;SDS011;65250;47.602;19.002;2024-03-17T03:05:33;1.80;;;1.38;;
76417;SDS011;65250;47.602;19.002;2024-03-17T03:08:00;2.30;;;1.37;;
76417;SDS011;65250;47.602;19.002;2024-03-17T03:10:26;2.03;;;1.52;;
76417;SDS011;65250;47.602;19.002;2024-03-17T03:12:52;2.83;;;1.77;;
76417;SDS011;65250;47.602;19.002;2024-03-17T03:15:18;1.73;;;1.10;;
76417;SDS011;65250;47.602;19.002;2024-03-17T03:17:44;1.83;;;1.40;;
76417;SDS011;65250;47.602;19.002;2024-03-17T03:20:10;2.40;;;1.30;;
76417;SDS011;65250;47.602;19.002;2024-03-17T03:22:37;2.63;;;1.25;;
76417;SDS011;65250;47.602;19.002;2024-03-17T03:25:03;1.85;;;1.30;;
76417;SDS011;65250;47.602;19.002;2024-03-17T03:27:30;1.45;;;1.00;;
76417;SDS011;65250;47.602;19.002;2024-03-17T03:29:56;1.95;;;1.27;;
76417;SDS011;65250;47.602;19.002;2024-03-17T03:32:22;1.70;;;1.30;;
76417;SDS011;65250;47.602;19.002;2024-03-17T03:34:48;2.10;;;1.40;;
76417;SDS011;65250;47.602;19.002;2024-03-17T03:37:14;2.95;;;1.60;;
76417;SDS011;65250;47.602;19.002;2024-03-17T03:39:40;1.92;;;1.60;;
76417;SDS011;65250;47.602;19.002;2024-03-17T03:42:06;1.92;;;1.33;;
76417;SDS011;65250;47.602;19.002;2024-03-17T03:44:33;2.47;;;1.52;;
76417;SDS011;65250;47.602;19.002;2024-03-17T03:46:58;1.65;;;1.20;;
76417;SDS011;65250;47.602;19.002;2024-03-17T03:49:26;3.15;;;1.20;;
76417;SDS011;65250;47.602;19.002;2024-03-17T03:51:52;3.03;;;1.60;;
76417;SDS011;65250;47.602;19.002;2024-03-17T03:54:18;2.53;;;1.67;;
76417;SDS011;65250;47.602;19.002;2024-03-17T03:56:44;2.40;;;1.67;;
76417;SDS011;65250;47.602;19.002;2024-03-17T03:59:10;2.92;;;1.90;;
76417;SDS011;65250;47.602;19.002;2024-03-17T04:01:36;2.60;;;1.30;;
76417;SDS011;65250;47.602;19.002;2024-03-17T04:04:02;3.27;;;1.60;;
76417;SDS011;65250;47.602;19.002;2024-03-17T04:06:29;2.20;;;1.58;;
76417;SDS011;65250;47.602;19.002;2024-03-17T04:08:55;2.97;;;1.42;;
76417;SDS011;65250;47.602;19.002;2024-03-17T04:11:21;2.38;;;1.60;;
76417;SDS011;65250;47.602;19.002;2024-03-17T04:13:47;3.33;;;1.60;;
76417;SDS011;65250;47.602;19.002;2024-03-17T04:16:14;2.00;;;1.23;;
76417;SDS011;65250;47.602;19.002;2024-03-17T04:18:40;2.05;;;1.25;;
76417;SDS011;65250;47.602;19.002;2024-03-17T04:21:07;4.03;;;1.90;;
76417;SDS011;65250;47.602;19.002;2024-03-17T04:23:33;1.92;;;1.50;;
76417;SDS011;65250;47.602;19.002;2024-03-17T04:25:59;1.92;;;1.30;;
76417;SDS011;65250;47.602;19.002;2024-03-17T04:28:26;4.50;;;1.60;;
76417;SDS011;65250;47.602;19.002;2024-03-17T04:30:52;2.72;;;1.70;;
76417;SDS011;65250;47.602;19.002;2024-03-17T04:33:18;3.30;;;1.67;;
76417;SDS011;65250;47.602;19.002;2024-03-17T04:35:44;2.42;;;1.60;;
76417;SDS011;65250;47.602;19.002;2024-03-17T04:38:10;3.30;;;1.53;;
76417;SDS011;65250;47.602;19.002;2024-03-17T04:40:40;2.35;;;1.50;;
76417;SDS011;65250;47.602;19.002;2024-03-17T04:43:07;2.35;;;1.60;;
76417;SDS011;65250;47.602;19.002;2024-03-17T04:45:33;2.08;;;1.38;;
76417;SDS011;65250;47.602;19.002;2024-03-17T04:47:58;2.23;;;1.50;;
76417;SDS011;65250;47.602;19.002;2024-03-17T04:50:24;2.47;;;1.73;;
76417;SDS011;65250;47.602;19.002;2024-03-17T04:52:52;2.08;;;1.40;;
76417;SDS011;65250;47.602;19.002;2024-03-17T04:55:17;2.93;;;1.53;;
76417;SDS011;65250;47.602;19.002;2024-03-17T04:57:45;2.55;;;1.75;;
76417;SDS011;65250;47.602;19.002;2024-03-17T05:00:11;2.75;;;1.55;;
76417;SDS011;65250;47.602;19.002;2024-03-17T05:02:40;4.90;;;1.83;;
76417;SDS011;65250;47.602;19.002;2024-03-17T05:05:06;3.40;;;1.50;;
76417;SDS011;65250;47.602;19.002;2024-03-17T05:07:34;5.28;;;2.10;;
76417;SDS011;65250;47.602;19.002;2024-03-17T05:10:01;4.78;;;1.45;;
76417;SDS011;65250;47.602;19.002;2024-03-17T05:12:27;4.40;;;1.83;;
76417;SDS011;65250;47.602;19.002;2024-03-17T05:14:53;3.90;;;1.65;;
76417;SDS011;65250;47.602;19.002;2024-03-17T05:17:19;4.13;;;1.57;;
76417;SDS011;65250;47.602;19.002;2024-03-17T05:19:45;2.47;;;1.55;;
76417;SDS011;65250;47.602;19.002;2024-03-17T05:22:11;2.40;;;1.53;;
76417;SDS011;65250;47.602;19.002;2024-03-17T05:24:36;2.47;;;1.50;;
76417;SDS011;65250;47.602;19.002;2024-03-17T05:27:02;3.15;;;1.60;;
76417;SDS011;65250;47.602;19.002;2024-03-17T05:29:29;2.20;;;1.40;;
76417;SDS011;65250;47.602;19.002;2024-03-17T05:31:55;3.08;;;1.88;;
76417;SDS011;65250;47.602;19.002;2024-03-17T05:34:22;3.15;;;1.60;;
76417;SDS011;65250;47.602;19.002;2024-03-17T05:36:52;2.78;;;1.55;;
76417;SDS011;65250;47.602;19.002;2024-03-17T05:39:18;2.30;;;1.50;;
76417;SDS011;65250;47.602;19.002;2024-03-17T05:41:46;3.03;;;1.40;;
76417;SDS011;65250;47.602;19.002;2024-03-17T05:44:17;2.05;;;1.10;;
76417;SDS011;65250;47.602;19.002;2024-03-17T05:46:43;2.13;;;1.20;;
76417;SDS011;65250;47.602;19.002;2024-03-17T05:49:09;2.33;;;1.25;;
76417;SDS011;65250;47.602;19.002;2024-03-17T05:51:36;2.15;;;1.15;;
76417;SDS011;65250;47.602;19.002;2024-03-17T05:54:02;2.97;;;1.30;;
76417;SDS011;65250;47.602;19.002;2024-03-17T05:56:28;1.92;;;0.90;;
76417;SDS011;65250;47.602;19.002;2024-03-17T05:58:54;3.45;;;1.60;;
76417;SDS011;65250;47.602;19.002;2024-03-17T06:01:20;2.13;;;1.17;;
76417;SDS011;65250;47.602;19.002;2024-03-17T06:03:48;4.10;;;1.52;;
76417;SDS011;65250;47.602;19.002;2024-03-17T06:06:14;4.13;;;1.05;;
76417;SDS011;65250;47.602;19.002;2024-03-17T06:08:40;3.70;;;1.52;;
76417;SDS011;65250;47.602;19.002;2024-03-17T06:11:06;2.65;;;1.52;;
76417;SDS011;65250;47.602;19.002;2024-03-17T06:13:33;3.77;;;1.50;;
76417;SDS011;65250;47.602;19.002;2024-03-17T06:16:01;1.88;;;0.95;;
76417;SDS011;65250;47.602;19.002;2024-03-17T06:18:28;3.75;;;1.38;;
76417;SDS011;65250;47.602;19.002;2024-03-17T06:20:54;3.00;;;1.20;;
76417;SDS011;65250;47.602;19.002;2024-03-17T06:23:24;3.38;;;1.50;;
76417;SDS011;65250;47.602;19.002;2024-03-17T06:25:50;4.00;;;1.27;;
76417;SDS011;65250;47.602;19.002;2024-03-17T06:28:21;2.83;;;1.48;;
76417;SDS011;65250;47.602;19.002;2024-03-17T06:30:59;2.13;;;1.52;;
76417;SDS011;65250;47.602;19.002;2024-03-17T06:33:25;1.75;;;1.00;;
76417;SDS011;65250;47.602;19.002;2024-03-17T06:35:52;2.38;;;1.15;;
76417;SDS011;65250;47.602;19.002;2024-03-17T06:38:18;3.72;;;1.45;;
76417;SDS011;65250;47.602;19.002;2024-03-17T06:40:50;2.40;;;1.23;;
76417;SDS011;65250;47.602;19.002;2024-03-17T06:43:17;3.28;;;1.17;;
76417;SDS011;65250;47.602;19.002;2024-03-17T06:45:43;2.72;;;1.45;;
76417;SDS011;65250;47.602;19.002;2024-03-17T06:48:10;2.85;;;1.45;;
76417;SDS011;65250;47.602;19.002;2024-03-17T06:50:37;2.90;;;1.40;;
76417;SDS011;65250;47.602;19.002;2024-03-17T06:53:04;2.13;;;1.40;;
76417;SDS011;65250;47.602;19.002;2024-03-17T06:55:30;1.98;;;0.90;;
76417;SDS011;65250;47.602;19.002;2024-03-17T06:57:56;1.73;;;1.27;;
76417;SDS011;65250;47.602;19.002;2024-03-17T07:00:22;2.63;;;1.40;;
76417;SDS011;65250;47.602;19.002;2024-03-17T07:02:50;1.88;;;1.08;;
76417;SDS011;65250;47.602;19.002;2024-03-17T07:05:16;2.80;;;1.63;;
76417;SDS011;65250;47.602;19.002;2024-03-17T07:07:43;3.92;;;1.38;;
76417;SDS011;65250;47.602;19.002;2024-03-17T07:10:09;1.90;;;0.90;;
76417;SDS011;65250;47.602;19.002;2024-03-17T07:12:40;1.77;;;0.90;;
76417;SDS011;65250;47.602;19.002;2024-03-17T07:15:07;1.83;;;1.00;;
76417;SDS011;65250;47.602;19.002;2024-03-17T07:17:34;3.80;;;1.00;;
76417;SDS011;65250;47.602;19.002;2024-03-17T07:20:00;2.22;;;1.08;;
76417;SDS011;65250;47.602;19.002;2024-03-17T07:22:26;4.47;;;1.20;;
76417;SDS011;65250;47.602;19.002;2024-03-17T07:24:52;1.20;;;1.00;;
76417;SDS011;65250;47.602;19.002;2024-03-17T07:27:22;3.38;;;1.40;;
76417;SDS011;65250;47.602;19.002;2024-03-17T07:29:48;2.17;;;1.27;;
76417;SDS011;65250;47.602;19.002;2024-03-17T07:32:14;4.47;;;1.30;;
76417;SDS011;65250;47.602;19.002;2024-03-17T07:34:40;3.60;;;1.27;;
76417;SDS011;65250;47.602;19.002;2024-03-17T07:37:06;2.95;;;1.50;;
76417;SDS011;65250;47.602;19.002;2024-03-17T07:39:32;6.60;;;1.57;;
76417;SDS011;65250;47.602;19.002;2024-03-17T07:42:01;3.67;;;1.80;;
76417;SDS011;65250;47.602;19.002;2024-03-17T07:44:28;2.17;;;1.40;;
76417;SDS011;65250;47.602;19.002;2024-03-17T07:46:58;2.05;;;1.30;;
76417;SDS011;65250;47.602;19.002;2024-03-17T07:49:29;2.27;;;0.70;;
76417;SDS011;65250;47.602;19.002;2024-03-17T07:51:58;4.05;;;1.42;;
76417;SDS011;65250;47.602;19.002;2024-03-17T07:54:24;2.30;;;1.25;;
76417;SDS011;65250;47.602;19.002;2024-03-17T07:56:51;4.28;;;1.08;;
76417;SDS011;65250;47.602;19.002;2024-03-17T07:59:18;2.83;;;1.30;;
76417;SDS011;65250;47.602;19.002;2024-03-17T08:01:44;3.07;;;1.17;;
76417;SDS011;65250;47.602;19.002;2024-03-17T08:04:11;2.75;;;1.50;;
76417;SDS011;65250;47.602;19.002;2024-03-17T08:06:40;3.20;;;1.10;;
76417;SDS011;65250;47.602;19.002;2024-03-17T08:09:10;3.20;;;1.05;;
76417;SDS011;65250;47.602;19.002;2024-03-17T08:11:36;4.03;;;1.30;;
76417;SDS011;65250;47.602;19.002;2024-03-17T08:14:02;2.83;;;0.93;;
76417;SDS011;65250;47.602;19.002;2024-03-17T08:16:28;5.00;;;1.05;;
76417;SDS011;65250;47.602;19.002;2024-03-17T08:18:55;2.30;;;1.00;;
76417;SDS011;65250;47.602;19.002;2024-03-17T08:21:22;3.03;;;1.10;;
76417;SDS011;65250;47.602;19.002;2024-03-17T08:23:48;1.92;;;1.10;;
76417;SDS011;65250;47.602;19.002;2024-03-17T08:26:14;1.70;;;1.13;;
76417;SDS011;65250;47.602;19.002;2024-03-17T08:28:40;1.50;;;1.02;;
76417;SDS011;65250;47.602;19.002;2024-03-17T08:31:06;2.83;;;1.02;;
76417;SDS011;65250;47.602;19.002;2024-03-17T08:33:32;3.67;;;1.10;;
76417;SDS011;65250;47.602;19.002;2024-03-17T08:38:29;3.80;;;1.40;;
76417;SDS011;65250;47.602;19.002;2024-03-17T08:41:01;2.35;;;1.15;;
76417;SDS011;65250;47.602;19.002;2024-03-17T08:43:28;3.15;;;1.30;;
76417;SDS011;65250;47.602;19.002;2024-03-17T08:45:58;1.48;;;0.90;;
76417;SDS011;65250;47.602;19.002;2024-03-17T08:48:27;1.63;;;1.10;;
76417;SDS011;65250;47.602;19.002;2024-03-17T08:50:57;2.65;;;1.30;;
76417;SDS011;65250;47.602;19.002;2024-03-17T08:53:23;3.28;;;1.20;;
76417;SDS011;65250;47.602;19.002;2024-03-17T08:55:50;3.88;;;1.50;;
76417;SDS011;65250;47.602;19.002;2024-03-17T08:58:16;4.40;;;1.30;;
76417;SDS011;65250;47.602;19.002;2024-03-17T09:00:43;2.20;;;1.02;;
76417;SDS011;65250;47.602;19.002;2024-03-17T09:03:09;3.22;;;1.88;;
76417;SDS011;65250;47.602;19.002;2024-03-17T09:05:36;4.65;;;1.33;;
76417;SDS011;65250;47.602;19.002;2024-03-17T09:08:02;4.15;;;1.55;;
76417;SDS011;65250;47.602;19.002;2024-03-17T09:10:28;4.18;;;1.23;;
76417;SDS011;65250;47.602;19.002;2024-03-17T09:12:54;2.92;;;1.30;;
76417;SDS011;65250;47.602;19.002;2024-03-17T09:15:20;5.00;;;1.52;;
76417;SDS011;65250;47.602;19.002;2024-03-17T09:17:46;3.57;;;1.40;;
76417;SDS011;65250;47.602;19.002;2024-03-17T09:20:13;2.33;;;1.23;;
76417;SDS011;65250;47.602;19.002;2024-03-17T09:22:40;5.15;;;1.33;;
76417;SDS011;65250;47.602;19.002;2024-03-17T09:25:07;2.50;;;1.17;;
76417;SDS011;65250;47.602;19.002;2024-03-17T09:27:34;2.17;;;1.40;;
76417;SDS011;65250;47.602;19.002;2024-03-17T09:30:05;3.35;;;1.60;;
76417;SDS011;65250;47.602;19.002;2024-03-17T09:32:37;3.92;;;1.10;;
76417;SDS011;65250;47.602;19.002;2024-03-17T09:35:04;5.10;;;1.52;;
76417;SDS011;65250;47.602;19.002;2024-03-17T09:37:31;1.80;;;1.48;;
76417;SDS011;65250;47.602;19.002;2024-03-17T09:40:00;3.03;;;1.35;;
76417;SDS011;65250;47.602;19.002;2024-03-17T09:42:26;3.35;;;1.25;;
76417;SDS011;65250;47.602;19.002;2024-03-17T09:44:53;2.80;;;1.33;;
76417;SDS011;65250;47.602;19.002;2024-03-17T09:47:22;2.65;;;1.00;;
76417;SDS011;65250;47.602;19.002;2024-03-17T09:49:50;2.97;;;0.90;;
76417;SDS011;65250;47.602;19.002;2024-03-17T09:52:24;4.30;;;1.10;;
76417;SDS011;65250;47.602;19.002;2024-03-17T09:55:00;4.97;;;1.40;;
76417;SDS011;65250;47.602;19.002;2024-03-17T09:57:27;3.38;;;1.33;;
76417;SDS011;65250;47.602;19.002;2024-03-17T09:59:54;3.10;;;1.33;;
76417;SDS011;65250;47.602;19.002;2024-03-17T10:02:21;1.42;;;1.13;;
76417;SDS011;65250;47.602;19.002;2024-03-17T10:04:47;2.05;;;1.23;;
76417;SDS011;65250;47.602;19.002;2024-03-17T10:07:14;3.22;;;1.15;;
76417;SDS011;65250;47.602;19.002;2024-03-17T10:09:41;2.75;;;1.48;;
76417;SDS011;65250;47.602;19.002;2024-03-17T10:12:28;2.38;;;1.27;;
76417;SDS011;65250;47.602;19.002;2024-03-17T10:14:58;2.65;;;2.00;;
76417;SDS011;65250;47.602;19.002;2024-03-17T10:17:34;4.53;;;2.10;;
76417;SDS011;65250;47.602;19.002;2024-03-17T10:25:32;4.05;;;1.50;;
76417;SDS011;65250;47.602;19.002;2024-03-17T10:27:59;3.15;;;1.60;;
76417;SDS011;65250;47.602;19.002;2024-03-17T10:30:26;4.43;;;1.33;;
76417;SDS011;65250;47.602;19.002;2024-03-17T10:32:58;2.00;;;1.30;;
76417;SDS011;65250;47.602;19.002;2024-03-17T10:37:57;3.10;;;1.95;;
76417;SDS011;65250;47.602;19.002;2024-03-17T10:40:31;4.25;;;1.60;;
76417;SDS011;65250;47.602;19.002;2024-03-17T10:43:04;3.78;;;1.48;;
76417;SDS011;65250;47.602;19.002;2024-03-17T10:45:30;4.63;;;1.63;;
76417;SDS011;65250;47.602;19.002;2024-03-17T10:48:01;3.28;;;1.40;;
76417;SDS011;65250;47.602;19.002;2024-03-17T10:50:30;2.80;;;1.70;;
76417;SDS011;65250;47.602;19.002;2024-03-17T10:53:00;4.40;;;1.50;;
76417;SDS011;65250;47.602;19.002;2024-03-17T10:55:44;5.88;;;1.27;;
76417;SDS011;65250;47.602;19.002;2024-03-17T10:58:18;3.53;;;1.55;;
76417;SDS011;65250;47.602;19.002;2024-03-17T11:00:47;3.05;;;1.50;;
76417;SDS011;65250;47.602;19.002;2024-03-17T11:03:12;2.78;;;1.55;;
76417;SDS011;65250;47.602;19.002;2024-03-17T11:05:39;2.33;;;1.42;;
76417;SDS011;65250;47.602;19.002;2024-03-17T11:08:05;2.65;;;1.63;;
76417;SDS011;65250;47.602;19.002;2024-03-17T11:10:35;3.15;;;1.70;;
76417;SDS011;65250;47.602;19.002;2024-03-17T11:13:03;3.30;;;1.60;;
76417;SDS011;65250;47.602;19.002;2024-03-17T11:18:37;3.73;;;2.20;;
76417;SDS011;65250;47.602;19.002;2024-03-17T11:23:32;2.45;;;1.60;;
76417;SDS011;65250;47.602;19.002;2024-03-17T11:25:58;2.15;;;1.95;;
76417;SDS011;65250;47.602;19.002;2024-03-17T11:33:57;3.25;;;1.80;;
76417;SDS011;65250;47.602;19.002;2024-03-17T11:39:07;3.30;;;2.33;;
76417;SDS011;65250;47.602;19.002;2024-03-17T11:41:45;2.63;;;2.03;;
76417;SDS011;65250;47.602;19.002;2024-03-17T11:54:37;1.98;;;1.88;;
76417;SDS011;65250;47.602;19.002;2024-03-17T11:57:06;2.67;;;2.20;;
76417;SDS011;65250;47.602;19.002;2024-03-17T11:59:32;6.00;;;2.10;;
76417;SDS011;65250;47.602;19.002;2024-03-17T12:01:59;2.55;;;1.83;;
76417;SDS011;65250;47.602;19.002;2024-03-17T12:04:25;3.83;;;2.30;;
76417;SDS011;65250;47.602;19.002;2024-03-17T12:06:52;3.72;;;2.10;;
76417;SDS011;65250;47.602;19.002;2024-03-17T12:09:28;3.38;;;2.08;;
76417;SDS011;65250;47.602;19.002;2024-03-17T12:14:26;2.22;;;1.80;;
76417;SDS011;65250;47.602;19.002;2024-03-17T12:16:52;2.23;;;2.03;;
76417;SDS011;65250;47.602;19.002;2024-03-17T12:19:19;2.75;;;2.00;;
76417;SDS011;65250;47.602;19.002;2024-03-17T12:21:49;3.80;;;2.28;;
76417;SDS011;65250;47.602;19.002;2024-03-17T12:24:23;2.08;;;1.80;;
76417;SDS011;65250;47.602;19.002;2024-03-17T12:26:50;2.83;;;2.25;;
76417;SDS011;65250;47.602;19.002;2024-03-17T12:31:59;2.55;;;2.17;;
76417;SDS011;65250;47.602;19.002;2024-03-17T12:34:27;3.85;;;2.50;;
76417;SDS011;65250;47.602;19.002;2024-03-17T12:36:56;4.80;;;2.88;;
76417;SDS011;65250;47.602;19.002;2024-03-17T12:42:06;4.60;;;2.50;;
76417;SDS011;65250;47.602;19.002;2024-03-17T12:44:34;2.55;;;2.35;;
76417;SDS011;65250;47.602;19.002;2024-03-17T12:47:07;2.83;;;2.45;;
76417;SDS011;65250;47.602;19.002;2024-03-17T12:49:35;2.72;;;2.28;;
76417;SDS011;65250;47.602;19.002;2024-03-17T12:52:01;2.78;;;2.47;;
76417;SDS011;65250;47.602;19.002;2024-03-17T12:54:28;2.80;;;2.30;;
76417;SDS011;65250;47.602;19.002;2024-03-17T12:57:05;2.70;;;2.50;;
76417;SDS011;65250;47.602;19.002;2024-03-17T12:59:51;4.53;;;3.00;;
76417;SDS011;65250;47.602;19.002;2024-03-17T13:02:44;2.80;;;2.60;;
76417;SDS011;65250;47.602;19.002;2024-03-17T13:05:15;3.08;;;2.83;;
76417;SDS011;65250;47.602;19.002;2024-03-17T13:07:43;2.77;;;2.10;;
76417;SDS011;65250;47.602;19.002;2024-03-17T13:10:15;2.70;;;2.50;;
76417;SDS011;65250;47.602;19.002;2024-03-17T13:12:45;2.60;;;2.40;;
76417;SDS011;65250;47.602;19.002;2024-03-17T13:15:12;3.20;;;2.70;;
76417;SDS011;65250;47.602;19.002;2024-03-17T13:17:39;3.10;;;2.80;;
76417;SDS011;65250;47.602;19.002;2024-03-17T13:20:06;3.40;;;2.60;;
76417;SDS011;65250;47.602;19.002;2024-03-17T13:22:37;2.63;;;2.13;;
76417;SDS011;65250;47.602;19.002;2024-03-17T13:25:06;3.22;;;2.60;;
76417;SDS011;65250;47.602;19.002;2024-03-17T13:27:34;3.00;;;2.80;;
76417;SDS011;65250;47.602;19.002;2024-03-17T13:30:00;3.13;;;2.70;;
76417;SDS011;65250;47.602;19.002;2024-03-17T13:32:26;2.60;;;2.38;;
76417;SDS011;65250;47.602;19.002;2024-03-17T13:34:52;2.90;;;2.70;;
76417;SDS011;65250;47.602;19.002;2024-03-17T13:37:18;3.10;;;2.80;;
76417;SDS011;65250;47.602;19.002;2024-03-17T13:39:44;3.10;;;2.90;;
76417;SDS011;65250;47.602;19.002;2024-03-17T13:42:10;3.47;;;2.63;;
76417;SDS011;65250;47.602;19.002;2024-03-17T13:44:37;5.43;;;2.75;;
76417;SDS011;65250;47.602;19.002;2024-03-17T13:47:02;4.55;;;2.70;;
76417;SDS011;65250;47.602;19.002;2024-03-17T13:49:29;3.22;;;2.55;;
76417;SDS011;65250;47.602;19.002;2024-03-17T13:51:55;2.87;;;2.67;;
76417;SDS011;65250;47.602;19.002;2024-03-17T13:54:22;3.95;;;2.33;;
76417;SDS011;65250;47.602;19.002;2024-03-17T13:56:48;3.88;;;2.40;;
76417;SDS011;65250;47.602;19.002;2024-03-17T13:59:15;4.75;;;2.40;;
76417;SDS011;65250;47.602;19.002;2024-03-17T14:01:45;3.10;;;2.30;;
76417;SDS011;65250;47.602;19.002;2024-03-17T14:04:15;3.10;;;2.40;;
76417;SDS011;65250;47.602;19.002;2024-03-17T14:06:43;7.40;;;2.95;;
76417;SDS011;65250;47.602;19.002;2024-03-17T14:09:20;5.50;;;2.80;;
76417;SDS011;65250;47.602;19.002;2024-03-17T14:11:46;3.65;;;2.63;;
76417;SDS011;65250;47.602;19.002;2024-03-17T14:14:12;2.33;;;2.13;;
76417;SDS011;65250;47.602;19.002;2024-03-17T14:16:38;2.73;;;2.30;;
76417;SDS011;65250;47.602;19.002;2024-03-17T14:19:06;2.83;;;2.22;;
76417;SDS011;65250;47.602;19.002;2024-03-17T14:21:31;3.28;;;2.60;;
76417;SDS011;65250;47.602;19.002;2024-03-17T14:23:57;3.17;;;2.40;;
76417;SDS011;65250;47.602;19.002;2024-03-17T14:26:24;3.03;;;2.63;;
76417;SDS011;65250;47.602;19.002;2024-03-17T14:28:50;4.10;;;2.25;;
76417;SDS011;65250;47.602;19.002;2024-03-17T14:31:17;3.22;;;2.13;;
76417;SDS011;65250;47.602;19.002;2024-03-17T14:33:43;2.58;;;2.33;;
76417;SDS011;65250;47.602;19.002;2024-03-17T14:36:09;2.70;;;2.50;;
76417;SDS011;65250;47.602;19.002;2024-03-17T14:38:36;3.35;;;2.40;;
76417;SDS011;65250;47.602;19.002;2024-03-17T14:41:01;3.03;;;2.10;;
76417;SDS011;65250;47.602;19.002;2024-03-17T14:43:30;3.10;;;2.22;;
76417;SDS011;65250;47.602;19.002;2024-03-17T14:45:56;2.03;;;1.83;;
76417;SDS011;65250;47.602;19.002;2024-03-17T14:48:22;2.30;;;2.10;;
76417;SDS011;65250;47.602;19.002;2024-03-17T14:50:49;2.50;;;2.30;;
76417;SDS011;65250;47.602;19.002;2024-03-17T14:53:14;1.98;;;1.88;;
76417;SDS011;65250;47.602;19.002;2024-03-17T14:55:42;2.17;;;1.98;;
76417;SDS011;65250;47.602;19.002;2024-03-17T14:58:09;2.43;;;1.97;;
76417;SDS011;65250;47.602;19.002;2024-03-17T15:00:35;2.85;;;2.25;;
76417;SDS011;65250;47.602;19.002;2024-03-17T15:03:02;2.92;;;1.90;;
76417;SDS011;65250;47.602;19.002;2024-03-17T15:05:28;3.83;;;1.88;;
76417;SDS011;65250;47.602;19.002;2024-03-17T15:07:54;2.00;;;1.90;;
76417;SDS011;65250;47.602;19.002;2024-03-17T15:10:20;3.85;;;1.75;;
76417;SDS011;65250;47.602;19.002;2024-03-17T15:12:47;2.03;;;1.90;;
76417;SDS011;65250;47.602;19.002;2024-03-17T15:15:14;4.45;;;2.00;;
76417;SDS011;65250;47.602;19.002;2024-03-17T15:17:40;6.00;;;3.20;;